Latest Coastal Weather Observations for Merimbula

IDN60701

Issued at 5:51 am EDT Sunday 2 October 2016 (issued every 10 minutes, with the page automatically refreshed every 10 minutes)

About coastal observations | Map of coastal stations | Coastal observations for NSW | Marine services | Other Formats
Station Details ID: 069147 Name: MERIMBULA AIRPORT AWS Lat: -36.91 Lon: 149.90 Height: 1.5 m
Data from the previous 72 hours. | See also: Recent months at Merimbula
Date/Time
EDT
Temp
°C
Wind Pressure Rain since
9am
mm
Weather Cloud Vis
km
Sea
Height
m
Swell
Dir  Spd
kts
Gust
kts
hPa Trend Height
m
Period
s
Dir
02/05:30am 5.1 SSW 5 6 1008.6 - 0.8 - - - - - - -
02/05:00am 5.4 NW 1 6 1008.4 - 0.8 - - - - - - -
02/04:30am 5.9 CALM 0 0 1008.1 - 0.8 - - - - - - -
02/04:00am 5.1 CALM 0 0 1008.4 - 0.8 - - - - - - -
02/03:30am 5.8 CALM 0 0 1008.4 - 0.8 - - - - - - -
02/03:00am 6.5 CALM 0 0 1008.4 - 0.8 - - - - - - -
02/01:30am 7.0 CALM 0 0 1008.2 - 0.8 - - - - - - -
02/01:00am 7.3 CALM 0 0 1008.1 - 0.8 - - - - - - -
02/12:30am 7.8 WSW 4 6 1008.0 - 0.8 - - - - - - -
02/12:00am 8.4 SSW 2 5 1007.9 - 0.8 - - - - - - -
 
Date/Time
EDT
Temp
°C
Wind Pressure Rain since
9am
mm
Weather Cloud Vis
km
Sea
Height
m
Swell
Dir  Spd
kts
Gust
kts
hPa Trend Height
m
Period
s
Dir
01/11:30pm 8.7 SSW 4 5 1007.7 - 0.8 - - - - - - -
01/11:00pm 9.4 SSW 6 7 1007.6 - 0.8 - - - - - - -
01/10:30pm 9.2 WNW 4 5 1007.5 - 0.8 - - - - - - -
01/10:00pm 9.7 WNW 1 5 1007.5 - 0.8 - - - - - - -
01/09:30pm 10.2 SW 4 6 1007.5 - 0.8 - - - - - - -
01/09:00pm 10.8 SW 3 4 1007.6 - 0.8 - - - - - - -
01/08:30pm 11.4 WSW 4 7 1007.2 - 0.8 - - - - - - -
01/08:00pm 11.9 NW 7 8 1006.9 - 0.8 - - - - - - -
01/07:30pm 11.8 CALM 0 0 1006.4 - 0.8 - - - - - - -
01/07:00pm 12.3 CALM 0 0 1005.7 - 0.8 - Partly cloudy - - - - -
01/06:30pm 12.9 CALM 0 0 1005.1 - 0.8 - Partly cloudy - - - - -
01/06:00pm 13.8 SW 2 5 1004.3 - 0.8 Recent precip. Partly cloudy - - - - -
01/05:30pm 14.9 SW 4 7 1004.1 - 0.6 - Partly cloudy - - - - -
01/05:00pm 15.5 SSW 6 9 1003.7 - 0.6 - Partly cloudy - - - - -
01/04:30pm 16.7 ESE 5 8 1002.5 - 0.6 - Partly cloudy - - - - -
01/04:00pm 16.1 SE 5 8 1002.2 - 0.6 - Cloudy - - - - -
01/03:30pm 16.0 SSE 7 11 1001.9 - 0.6 - Partly cloudy - - - - -
01/03:00pm 17.3 E 6 9 1001.7 - 0.6 Recent precip. Cloudy - - - - -
01/02:30pm 16.3 ENE 5 9 1001.4 - 0.6 - Partly cloudy - - - - -
01/02:00pm 17.3 SE 6 11 1001.4 - 0.0 - Partly cloudy - - - - -
01/01:30pm 18.2 ESE 8 11 1000.8 - 0.0 - Cloudy - - - - -
01/01:00pm 18.0 ENE 9 12 1000.4 - 0.0 - Partly cloudy - - - - -
01/12:30pm 18.4 NE 8 14 1000.2 - 0.0 - Partly cloudy - - - - -
01/12:00pm 18.5 NE 9 15 1000.4 - 0.0 - Cloudy - - - - -
01/11:30am 17.6 NE 9 16 1000.4 - 0.0 - Partly cloudy - - - - -
01/11:00am 18.4 NE 10 15 1000.4 - 0.0 - Partly cloudy - - - - -
01/10:30am 17.9 NE 7 12 1000.8 - 0.0 - Partly cloudy - - - - -
01/10:00am 17.2 NNE 4 6 1000.8 - 0.0 - Partly cloudy - - - - -
01/09:30am 17.2 NE 5 8 1000.9 - 0.0 - - - - - - -
01/09:00am 15.0 CALM 0 6 1001.1 - 0.0 - Partly cloudy - - - - -
01/08:30am 13.7 CALM 0 1 1001.1 - 0.0 - - - - - - -
01/08:00am 13.1 CALM 0 0 1000.8 - 0.0 - - - - - - -
01/07:30am 11.1 CALM 0 0 1000.7 - 0.0 - - - - - - -
01/07:00am 9.2 CALM 0 0 1000.6 - 0.0 - - - - - - -
01/06:30am 8.6 CALM 0 0 1000.2 - 0.0 - - - - - - -
01/06:00am 8.4 CALM 0 0 999.8 - 0.0 - Cloudy - - - - -
01/05:30am 8.0 WSW 2 5 999.5 - 0.0 - - - - - - -
01/05:00am 8.1 WSW 4 6 999.2 - 0.0 - - - - - - -
01/04:30am 7.6 CALM 0 0 998.8 - 0.0 - - - - - - -
01/04:00am 6.6 CALM 0 0 998.4 - 0.0 - - - - - - -
01/03:30am 6.8 CALM 0 0 998.0 - 0.0 - - - - - - -
01/03:00am 6.5 CALM 0 0 998.2 - 0.0 - Mostly cloudy - - - - -
01/02:30am 6.4 CALM 0 0 998.2 - 0.0 - - - - - - -
01/02:00am 5.3 CALM 0 0 997.9 - 0.0 - - - - - - -
01/01:30am 5.9 CALM 0 0 998.0 - 0.0 - - - - - - -
01/01:00am 6.2 CALM 0 0 998.1 - 0.0 - - - - - - -
01/12:30am 6.6 CALM 0 0 998.0 - 0.0 - - - - - - -
01/12:00am 7.0 CALM 0 0 997.9 - 0.0 - - - - - - -
 
Date/Time
EDT
Temp
°C
Wind Pressure Rain since
9am
mm
Weather Cloud Vis
km
Sea
Height
m
Swell
Dir  Spd
kts
Gust
kts
hPa Trend Height
m
Period
s
Dir
30/11:30pm 7.5 W 3 5 997.9 - 0.0 - - - - - - -
30/11:00pm 8.2 W 2 7 998.0 - 0.0 - Partly cloudy - - - - -
30/10:30pm 7.6 CALM 0 0 997.9 - 0.0 - - - - - - -
30/10:00pm 8.4 S 3 5 998.0 - 0.0 - - - - - - -
30/09:30pm 8.8 CALM 0 0 997.5 - 0.0 - - - - - - -
30/09:00pm 9.3 CALM 0 0 997.2 - 0.0 - Cloudy - - - - -
30/08:30pm 10.1 CALM 0 0 997.0 - 0.0 - Partly cloudy - - - - -
30/08:00pm 11.8 SW 5 9 996.7 - 0.0 - Partly cloudy - - - - -
30/07:30pm 11.5 S 4 9 996.3 - 0.0 - Partly cloudy - - - - -
30/07:00pm 10.5 CALM 0 0 995.8 - 0.0 - Partly cloudy - - - - -
30/06:30pm 11.6 CALM 0 0 994.7 - 0.0 - Partly cloudy - - - - -
30/06:00pm 13.4 CALM 0 0 994.0 - 0.0 - Mostly cloudy - - - - -
30/05:30pm 14.2 SW 5 8 993.5 - 0.0 - Partly cloudy - - - - -
30/05:00pm 14.3 SSW 7 11 992.9 - 0.0 - - - - - - -
30/04:30pm 14.6 SSE 4 7 992.4 - 0.0 - Partly cloudy - - - - -
30/04:00pm 14.7 S 8 14 992.0 - 0.0 - Partly cloudy - - - - -
30/03:30pm 16.4 WNW 10 17 991.6 - 0.0 - Partly cloudy - - - - -
30/03:00pm 16.8 NNE 9 15 990.7 - 0.0 - Cloudy - - - - -
30/02:30pm 17.9 NNE 8 13 990.6 - 0.0 - - - - - - -
30/02:00pm 16.9 NNE 6 10 990.8 - 0.0 - - - - - - -
30/01:30pm 16.3 NE 6 11 991.1 - 0.0 - - - - - - -
30/01:00pm 16.2 NNE 5 10 991.3 - 0.0 - - - - - - -
30/12:30pm 16.5 NNE 5 8 991.6 - 0.0 - - - - - - -
30/12:00pm 15.7 NNE 6 9 992.0 - 0.0 - Cloudy - - - - -
30/11:30am 15.1 NNE 7 11 992.3 - 0.0 - - - - - - -
30/11:00am 14.6 NNE 9 15 992.5 - 0.0 - - - - - - -
30/10:30am 15.3 NNE 9 14 992.6 - 0.0 - - - - - - -
30/10:00am 14.9 N 9 15 992.9 - 0.0 - - - - - - -
30/09:30am 14.7 NNE 9 14 993.0 - 0.0 - - - - - - -
30/09:00am 14.8 N 8 14 993.1 - 4.0 - Cloudy - - - - -
30/08:30am 13.9 N 7 11 993.4 - 4.0 - Partly cloudy - - - - -
30/08:00am 13.8 N 6 9 993.6 - 4.0 - Partly cloudy - - - - -
30/07:30am 11.4 CALM 0 0 993.6 - 4.0 - Partly cloudy - - - - -
30/07:00am 9.8 SW 3 6 993.6 - 4.0 - Partly cloudy - - - - -
30/06:30am 11.2 N 4 6 993.5 - 4.0 - Partly cloudy - - - - -
30/06:00am 8.1 CALM 0 0 993.3 - 4.0 - Cloudy - - - - -
30/05:30am 8.0 CALM 0 0 993.1 - 4.0 - Cloudy - - - - -
30/05:00am 7.8 CALM 0 0 993.2 - 4.0 - Cloudy - - - - -
30/04:30am 7.3 CALM 0 0 993.4 - 4.0 - Partly cloudy - - - - -
30/04:00am 7.1 CALM 0 0 993.4 - 4.0 - Partly cloudy - - - - -
30/03:30am 7.1 CALM 0 0 993.4 - 4.0 - - - - - - -
30/03:00am 7.3 CALM 0 0 993.5 - 4.0 - Cloudy - - - - -
30/02:30am 7.8 CALM 0 0 993.8 - 4.0 - - - - - - -
30/02:00am 7.9 CALM 0 0 994.1 - 4.0 - - - - - - -
30/01:30am 8.7 CALM 0 0 994.4 - 4.0 - Partly cloudy - - - - -
30/01:00am 9.7 CALM 0 0 994.6 - 4.0 - Cloudy - - - - -
30/12:30am 9.9 CALM 0 0 994.6 - 4.0 - Cloudy - - - - -
30/12:00am 11.7 N 5 6 994.4 - 4.0 - Cloudy - - - - -
 
Date/Time
EDT
Temp
°C
Wind Pressure Rain since
9am
mm
Weather Cloud Vis
km
Sea
Height
m
Swell
Dir  Spd
kts
Gust
kts
hPa Trend Height
m
Period
s
Dir
29/11:30pm 11.4 S 3 6 994.1 - 4.0 - Partly cloudy - - - - -
29/11:00pm 12.8 NNW 8 12 993.9 - 4.0 - - - - - - -
29/10:30pm 12.4 NNW 8 11 993.7 - 4.0 - - - - - - -
29/10:00pm 13.0 NNW 10 15 993.5 - 4.0 - - - - - - -
29/09:30pm 13.1 NNW 8 12 993.6 - 4.0 - - - - - - -
29/09:00pm 8.9 CALM 0 4 993.8 - 4.0 - Mostly clear - - - - -
29/08:30pm 10.6 NNW 5 7 993.9 - 4.0 - - - - - - -
29/08:00pm 11.6 WNW 4 5 993.6 - 4.0 - - - - - - -
29/07:30pm 13.6 W 6 9 993.3 - 4.0 - - - - - - -
29/07:00pm 14.3 NW 11 15 993.3 - 4.0 - - - - - - -
29/06:30pm 14.5 NW 8 10 992.9 - 4.0 - - - - - - -
29/06:00pm 15.9 NW 14 19 992.2 - 4.0 - - - - - - -
29/05:30pm 17.6 WNW 15 23 991.6 - 4.0 - Partly cloudy - - - - -
29/05:22pm 18.0 WNW 15 23 991.5 - 4.0 - Partly cloudy - - - - -
29/05:00pm 18.4 NW 7 10 991.5 - 4.0 - Partly cloudy - - - - -
29/04:30pm 17.2 NNE 10 15 990.9 - 4.0 - Partly cloudy - - - - -
29/04:00pm 19.0 NNE 8 15 990.5 - 4.0 - Partly cloudy - - - - -
29/03:30pm 18.8 NNE 7 13 990.5 - 4.0 - Partly cloudy - - - - -
29/03:00pm 17.5 NE 8 15 990.4 - 4.0 - Partly cloudy - - - - -
29/02:30pm 19.0 NNE 7 15 990.8 - 4.0 - Partly cloudy - - - - -
29/02:00pm 18.6 N 9 19 991.1 - 4.0 - - - - - - -
29/01:30pm 17.7 N 9 16 991.2 - 4.0 - - - - - - -
29/01:00pm 15.4 N 6 11 992.0 - 4.0 - Partly cloudy - - - - -
29/12:30pm 14.6 N 10 18 992.7 - 4.0 - - - - - - -
29/12:00pm 14.2 N 13 23 993.2 - 4.0 Recent precip. Mostly cloudy - - - - -
29/11:30am 14.1 N 11 20 993.7 - 4.0 - Partly cloudy - - - - -
29/11:00am 13.5 N 11 23 994.8 - 3.0 - Partly cloudy - - - - -
29/10:30am 13.6 N 10 18 994.9 - 2.4 - Partly cloudy - - - - -
29/10:00am 13.6 N 12 20 995.5 - 1.6 - Partly cloudy - - - - -
29/09:30am 13.5 N 9 15 996.2 - 0.6 - Partly cloudy - - - - -
29/09:00am 13.3 NNE 8 13 996.6 - 2.4 Rain Cloudy - - - - -
29/08:30am 13.3 N 5 9 997.5 - 1.4 - Partly cloudy - - - - -
29/08:00am 13.8 N 7 12 998.3 - 0.8 - Partly cloudy - - - - -
29/07:30am 13.5 N 7 11 998.7 - 0.8 - Partly cloudy - - - - -
29/07:00am 13.6 N 8 12 999.4 - 0.4 - Partly cloudy - - - - -
29/06:30am 14.8 N 6 11 999.7 - 0.0 - Partly cloudy - - - - -
29/06:00am 14.8 N 8 13 999.8 - 0.0 - Mostly cloudy - - - - -
29/05:30am 14.1 N 7 11 1000.0 - 0.0 - - - - - - -
29/05:00am 14.2 N 8 12 999.9 - 0.0 - - - - - - -

Other Formats:

Comma delimited format used in spreadsheet applications
http://www.bom.gov.au/fwo/IDN60701/IDN60701.95929.axf

JavaScript Object Notation format (JSON) in row-major order
http://www.bom.gov.au/fwo/IDN60701/IDN60701.95929.json